sensor_id;sensor_type;location;lat;lon;timestamp;pressure;altitude;pressure_sealevel;temperature;humidity
54806;BME280;62866;55.776;37.496;2023-03-05T00:02:04;96897.03;;;-0.72;90.75
54806;BME280;62866;55.776;37.496;2023-03-05T00:04:30;96891.63;;;-0.70;90.43
54806;BME280;62866;55.776;37.496;2023-03-05T00:06:55;96892.81;;;-0.73;90.14
54806;BME280;62866;55.776;37.496;2023-03-05T00:09:21;96885.69;;;-0.79;89.81
54806;BME280;62866;55.776;37.496;2023-03-05T00:11:47;96883.63;;;-0.84;89.74
54806;BME280;62866;55.776;37.496;2023-03-05T00:14:12;96886.75;;;-0.95;89.32
54806;BME280;62866;55.776;37.496;2023-03-05T00:16:38;96885.13;;;-0.96;90.00
54806;BME280;62866;55.776;37.496;2023-03-05T00:19:05;96887.56;;;-0.94;89.60
54806;BME280;62866;55.776;37.496;2023-03-05T00:21:35;96890.56;;;-0.97;89.56
54806;BME280;62866;55.776;37.496;2023-03-05T00:24:04;96891.19;;;-0.95;89.88
54806;BME280;62866;55.776;37.496;2023-03-05T00:26:31;96887.94;;;-0.97;89.87
54806;BME280;62866;55.776;37.496;2023-03-05T00:28:58;96896.16;;;-1.00;89.68
54806;BME280;62866;55.776;37.496;2023-03-05T00:31:29;96895.75;;;-1.04;89.95
54806;BME280;62866;55.776;37.496;2023-03-05T00:33:58;96900.53;;;-1.07;89.43
54806;BME280;62866;55.776;37.496;2023-03-05T00:36:24;96871.00;;;-1.16;89.64
54806;BME280;62866;55.776;37.496;2023-03-05T00:38:50;96894.13;;;-1.05;89.36
54806;BME280;62866;55.776;37.496;2023-03-05T00:41:16;96887.06;;;-1.04;89.37
54806;BME280;62866;55.776;37.496;2023-03-05T00:43:42;96885.88;;;-1.02;89.16
54806;BME280;62866;55.776;37.496;2023-03-05T00:46:07;96889.91;;;-0.99;88.36
54806;BME280;62866;55.776;37.496;2023-03-05T00:48:33;96886.00;;;-1.10;88.51
54806;BME280;62866;55.776;37.496;2023-03-05T00:50:58;96886.81;;;-1.09;88.69
54806;BME280;62866;55.776;37.496;2023-03-05T00:53:24;96892.59;;;-1.14;88.94
54806;BME280;62866;55.776;37.496;2023-03-05T00:55:50;96878.44;;;-1.20;88.97
54806;BME280;62866;55.776;37.496;2023-03-05T00:58:15;96886.94;;;-1.18;88.64
54806;BME280;62866;55.776;37.496;2023-03-05T01:00:41;96890.97;;;-1.15;88.60
54806;BME280;62866;55.776;37.496;2023-03-05T01:03:07;96881.88;;;-1.19;88.86
54806;BME280;62866;55.776;37.496;2023-03-05T01:05:32;96883.63;;;-1.26;88.38
54806;BME280;62866;55.776;37.496;2023-03-05T01:07:58;96877.03;;;-1.37;88.36
54806;BME280;62866;55.776;37.496;2023-03-05T01:10:24;96894.75;;;-1.39;88.58
54806;BME280;62866;55.776;37.496;2023-03-05T01:12:56;96891.94;;;-1.37;88.79
54806;BME280;62866;55.776;37.496;2023-03-05T01:15:23;96883.53;;;-1.33;88.62
54806;BME280;62866;55.776;37.496;2023-03-05T01:17:49;96890.56;;;-1.33;88.75
54806;BME280;62866;55.776;37.496;2023-03-05T01:20:15;96873.09;;;-1.47;88.10
54806;BME280;62866;55.776;37.496;2023-03-05T01:22:41;96888.06;;;-1.41;87.87
54806;BME280;62866;55.776;37.496;2023-03-05T01:25:07;96891.88;;;-1.44;87.94
54806;BME280;62866;55.776;37.496;2023-03-05T01:27:33;96891.25;;;-1.46;87.26
54806;BME280;62866;55.776;37.496;2023-03-05T01:29:59;96889.25;;;-1.44;87.70
54806;BME280;62866;55.776;37.496;2023-03-05T01:32:24;96887.56;;;-1.51;88.11
54806;BME280;62866;55.776;37.496;2023-03-05T01:34:50;96890.69;;;-1.41;87.70
54806;BME280;62866;55.776;37.496;2023-03-05T01:37:16;96883.03;;;-1.43;87.70
54806;BME280;62866;55.776;37.496;2023-03-05T01:39:41;96890.06;;;-1.43;87.60
54806;BME280;62866;55.776;37.496;2023-03-05T01:42:07;96877.31;;;-1.46;87.52
54806;BME280;62866;55.776;37.496;2023-03-05T01:44:33;96883.03;;;-1.43;87.68
54806;BME280;62866;55.776;37.496;2023-03-05T01:46:59;96866.31;;;-1.57;87.30
54806;BME280;62866;55.776;37.496;2023-03-05T01:49:39;96876.28;;;-1.52;87.67
54806;BME280;62866;55.776;37.496;2023-03-05T01:52:14;96892.34;;;-1.55;87.79
54806;BME280;62866;55.776;37.496;2023-03-05T01:54:44;96889.72;;;-1.55;87.49
54806;BME280;62866;55.776;37.496;2023-03-05T01:57:19;96885.47;;;-1.56;87.67
54806;BME280;62866;55.776;37.496;2023-03-05T01:59:48;96886.47;;;-1.57;87.74
54806;BME280;62866;55.776;37.496;2023-03-05T02:02:17;96878.00;;;-1.59;87.18
54806;BME280;62866;55.776;37.496;2023-03-05T02:04:47;96892.09;;;-1.60;87.64
54806;BME280;62866;55.776;37.496;2023-03-05T02:07:15;96888.19;;;-1.64;87.83
54806;BME280;62866;55.776;37.496;2023-03-05T02:09:41;96886.03;;;-1.61;87.50
54806;BME280;62866;55.776;37.496;2023-03-05T02:12:08;96885.94;;;-1.67;87.67
54806;BME280;62866;55.776;37.496;2023-03-05T02:14:34;96891.16;;;-1.67;87.52
54806;BME280;62866;55.776;37.496;2023-03-05T02:17:01;96897.22;;;-1.67;88.25
54806;BME280;62866;55.776;37.496;2023-03-05T02:19:26;96884.13;;;-1.67;87.73
54806;BME280;62866;55.776;37.496;2023-03-05T02:21:52;96892.91;;;-1.60;87.75
54806;BME280;62866;55.776;37.496;2023-03-05T02:24:33;96875.28;;;-1.66;87.41
54806;BME280;62866;55.776;37.496;2023-03-05T02:26:59;96886.41;;;-1.64;87.51
54806;BME280;62866;55.776;37.496;2023-03-05T02:29:27;96877.00;;;-1.73;87.52
54806;BME280;62866;55.776;37.496;2023-03-05T02:31:54;96882.63;;;-1.76;87.92
54806;BME280;62866;55.776;37.496;2023-03-05T02:34:21;96887.59;;;-1.81;88.22
54806;BME280;62866;55.776;37.496;2023-03-05T02:36:47;96869.00;;;-1.86;88.45
54806;BME280;62866;55.776;37.496;2023-03-05T02:39:15;96881.09;;;-1.85;89.04
54806;BME280;62866;55.776;37.496;2023-03-05T02:41:41;96881.91;;;-1.84;89.02
54806;BME280;62866;55.776;37.496;2023-03-05T02:44:07;96875.41;;;-1.88;88.92
54806;BME280;62866;55.776;37.496;2023-03-05T02:46:33;96886.69;;;-1.88;89.12
54806;BME280;62866;55.776;37.496;2023-03-05T02:48:58;96872.97;;;-1.90;88.88
54806;BME280;62866;55.776;37.496;2023-03-05T02:51:24;96876.94;;;-1.94;89.27
54806;BME280;62866;55.776;37.496;2023-03-05T02:53:50;96871.34;;;-1.91;89.33
54806;BME280;62866;55.776;37.496;2023-03-05T02:56:16;96876.38;;;-1.89;89.34
54806;BME280;62866;55.776;37.496;2023-03-05T02:58:41;96869.16;;;-1.87;89.27
54806;BME280;62866;55.776;37.496;2023-03-05T03:01:08;96870.41;;;-1.83;88.97
54806;BME280;62866;55.776;37.496;2023-03-05T03:03:34;96872.69;;;-1.80;89.59
54806;BME280;62866;55.776;37.496;2023-03-05T03:06:00;96874.22;;;-1.86;89.61
54806;BME280;62866;55.776;37.496;2023-03-05T03:08:26;96866.00;;;-1.83;90.07
54806;BME280;62866;55.776;37.496;2023-03-05T03:10:52;96871.69;;;-1.79;90.36
54806;BME280;62866;55.776;37.496;2023-03-05T03:13:24;96861.41;;;-1.81;90.46
54806;BME280;62866;55.776;37.496;2023-03-05T03:16:00;96860.31;;;-1.86;90.49
54806;BME280;62866;55.776;37.496;2023-03-05T03:18:26;96862.31;;;-1.88;90.29
54806;BME280;62866;55.776;37.496;2023-03-05T03:20:51;96870.06;;;-1.80;90.38
54806;BME280;62866;55.776;37.496;2023-03-05T03:23:17;96859.25;;;-1.77;90.43
54806;BME280;62866;55.776;37.496;2023-03-05T03:25:42;96859.66;;;-1.74;90.04
54806;BME280;62866;55.776;37.496;2023-03-05T03:28:08;96864.00;;;-1.81;90.43
54806;BME280;62866;55.776;37.496;2023-03-05T03:30:34;96864.75;;;-1.87;90.72
54806;BME280;62866;55.776;37.496;2023-03-05T03:32:59;96852.81;;;-1.89;91.32
54806;BME280;62866;55.776;37.496;2023-03-05T03:35:25;96865.38;;;-1.85;90.50
54806;BME280;62866;55.776;37.496;2023-03-05T03:37:51;96863.13;;;-1.88;90.76
54806;BME280;62866;55.776;37.496;2023-03-05T03:40:16;96859.59;;;-1.95;90.68
54806;BME280;62866;55.776;37.496;2023-03-05T03:42:42;96863.94;;;-1.87;90.72
54806;BME280;62866;55.776;37.496;2023-03-05T03:45:08;96865.66;;;-1.95;90.93
54806;BME280;62866;55.776;37.496;2023-03-05T03:47:33;96859.78;;;-1.97;91.41
54806;BME280;62866;55.776;37.496;2023-03-05T03:49:59;96850.66;;;-2.01;91.59
54806;BME280;62866;55.776;37.496;2023-03-05T03:52:25;96861.50;;;-2.04;90.94
54806;BME280;62866;55.776;37.496;2023-03-05T03:54:50;96857.00;;;-2.10;91.53
54806;BME280;62866;55.776;37.496;2023-03-05T03:57:17;96863.75;;;-2.01;91.94
54806;BME280;62866;55.776;37.496;2023-03-05T03:59:43;96856.28;;;-2.04;91.85
54806;BME280;62866;55.776;37.496;2023-03-05T04:02:10;96861.41;;;-1.96;91.64
54806;BME280;62866;55.776;37.496;2023-03-05T04:04:36;96855.19;;;-1.95;91.97
54806;BME280;62866;55.776;37.496;2023-03-05T04:07:01;96854.38;;;-1.95;91.72
54806;BME280;62866;55.776;37.496;2023-03-05T04:09:27;96852.91;;;-1.98;91.20
54806;BME280;62866;55.776;37.496;2023-03-05T04:11:52;96855.38;;;-1.96;91.87
54806;BME280;62866;55.776;37.496;2023-03-05T04:14:18;96855.19;;;-1.95;91.65
54806;BME280;62866;55.776;37.496;2023-03-05T04:16:43;96854.28;;;-2.02;90.97
54806;BME280;62866;55.776;37.496;2023-03-05T04:19:09;96862.75;;;-2.00;90.81
54806;BME280;62866;55.776;37.496;2023-03-05T04:21:35;96857.97;;;-1.96;91.60
54806;BME280;62866;55.776;37.496;2023-03-05T04:24:00;96865.03;;;-1.97;91.23
54806;BME280;62866;55.776;37.496;2023-03-05T04:26:26;96859.97;;;-1.98;91.46
54806;BME280;62866;55.776;37.496;2023-03-05T04:28:51;96855.00;;;-1.93;91.10
54806;BME280;62866;55.776;37.496;2023-03-05T04:31:17;96858.44;;;-1.93;91.07
54806;BME280;62866;55.776;37.496;2023-03-05T04:33:44;96861.22;;;-1.79;91.66
54806;BME280;62866;55.776;37.496;2023-03-05T04:36:10;96857.59;;;-1.78;91.61
54806;BME280;62866;55.776;37.496;2023-03-05T04:38:35;96860.59;;;-1.81;91.52
54806;BME280;62866;55.776;37.496;2023-03-05T04:41:01;96862.09;;;-1.72;91.34
54806;BME280;62866;55.776;37.496;2023-03-05T04:43:27;96871.34;;;-1.76;91.06
54806;BME280;62866;55.776;37.496;2023-03-05T04:45:54;96856.22;;;-1.74;90.94
54806;BME280;62866;55.776;37.496;2023-03-05T04:48:19;96864.72;;;-1.72;90.59
54806;BME280;62866;55.776;37.496;2023-03-05T04:50:45;96867.91;;;-1.77;90.28
54806;BME280;62866;55.776;37.496;2023-03-05T04:53:10;96873.50;;;-1.80;89.99
54806;BME280;62866;55.776;37.496;2023-03-05T04:55:36;96879.81;;;-1.74;89.09
54806;BME280;62866;55.776;37.496;2023-03-05T04:58:01;96865.53;;;-1.72;88.83
54806;BME280;62866;55.776;37.496;2023-03-05T05:00:27;96874.75;;;-1.61;88.90
54806;BME280;62866;55.776;37.496;2023-03-05T05:02:53;96878.25;;;-1.54;88.95
54806;BME280;62866;55.776;37.496;2023-03-05T05:05:21;96875.06;;;-1.49;88.22
54806;BME280;62866;55.776;37.496;2023-03-05T05:07:47;96856.00;;;-1.43;88.50
54806;BME280;62866;55.776;37.496;2023-03-05T05:10:13;96880.53;;;-1.30;88.06
54806;BME280;62866;55.776;37.496;2023-03-05T05:12:39;96877.22;;;-1.17;87.89
54806;BME280;62866;55.776;37.496;2023-03-05T05:15:06;96876.44;;;-1.18;87.92
54806;BME280;62866;55.776;37.496;2023-03-05T05:17:32;96879.56;;;-1.07;87.95
54806;BME280;62866;55.776;37.496;2023-03-05T05:20:02;96886.94;;;-0.96;88.30
54806;BME280;62866;55.776;37.496;2023-03-05T05:22:30;96876.91;;;-0.93;88.11
54806;BME280;62866;55.776;37.496;2023-03-05T05:24:56;96883.69;;;-0.77;87.72
54806;BME280;62866;55.776;37.496;2023-03-05T05:27:22;96867.28;;;-0.86;87.44
54806;BME280;62866;55.776;37.496;2023-03-05T05:29:47;96891.81;;;-0.72;87.79
54806;BME280;62866;55.776;37.496;2023-03-05T05:32:19;96889.94;;;-0.78;87.68
54806;BME280;62866;55.776;37.496;2023-03-05T05:34:45;96888.06;;;-0.84;87.54
54806;BME280;62866;55.776;37.496;2023-03-05T05:37:10;96883.44;;;-0.82;87.39
54806;BME280;62866;55.776;37.496;2023-03-05T05:39:36;96886.81;;;-0.88;88.29
54806;BME280;62866;55.776;37.496;2023-03-05T05:42:02;96901.88;;;-0.75;88.33
54806;BME280;62866;55.776;37.496;2023-03-05T05:44:28;96875.31;;;-0.87;88.29
54806;BME280;62866;55.776;37.496;2023-03-05T05:46:53;96847.72;;;-1.04;88.69
54806;BME280;62866;55.776;37.496;2023-03-05T05:49:19;96896.00;;;-0.78;88.55
54806;BME280;62866;55.776;37.496;2023-03-05T05:51:44;96898.00;;;-0.80;88.51
54806;BME280;62866;55.776;37.496;2023-03-05T05:54:13;96905.91;;;-0.73;88.55
54806;BME280;62866;55.776;37.496;2023-03-05T05:56:39;96898.91;;;-0.66;88.87
54806;BME280;62866;55.776;37.496;2023-03-05T05:59:06;96899.72;;;-0.65;88.74
54806;BME280;62866;55.776;37.496;2023-03-05T06:01:33;96897.09;;;-0.65;89.02
54806;BME280;62866;55.776;37.496;2023-03-05T06:03:59;96909.63;;;-0.67;89.45
54806;BME280;62866;55.776;37.496;2023-03-05T06:06:26;96901.34;;;-0.64;89.27
54806;BME280;62866;55.776;37.496;2023-03-05T06:08:52;96902.16;;;-0.64;89.18
54806;BME280;62866;55.776;37.496;2023-03-05T06:11:19;96911.47;;;-0.61;89.34
54806;BME280;62866;55.776;37.496;2023-03-05T06:13:45;96901.78;;;-0.61;89.13
54806;BME280;62866;55.776;37.496;2023-03-05T06:16:14;96916.72;;;-0.61;89.34
54806;BME280;62866;55.776;37.496;2023-03-05T06:18:40;96907.03;;;-0.61;89.52
54806;BME280;62866;55.776;37.496;2023-03-05T06:21:09;96910.16;;;-0.51;89.21
54806;BME280;62866;55.776;37.496;2023-03-05T06:23:35;96921.66;;;-0.52;89.40
54806;BME280;62866;55.776;37.496;2023-03-05T06:26:04;96909.41;;;-0.45;89.18
54806;BME280;62866;55.776;37.496;2023-03-05T06:28:30;96915.31;;;-0.36;89.33
54806;BME280;62866;55.776;37.496;2023-03-05T06:31:24;96917.84;;;-0.21;89.20
54806;BME280;62866;55.776;37.496;2023-03-05T06:33:53;96915.22;;;-0.21;88.56
54806;BME280;62866;55.776;37.496;2023-03-05T06:36:21;96918.03;;;-0.23;88.14
54806;BME280;62866;55.776;37.496;2023-03-05T06:38:48;96922.91;;;-0.20;88.29
54806;BME280;62866;55.776;37.496;2023-03-05T06:41:16;96931.44;;;-0.18;88.83
54806;BME280;62866;55.776;37.496;2023-03-05T06:43:43;96937.53;;;-0.11;89.33
54806;BME280;62866;55.776;37.496;2023-03-05T06:46:17;96930.16;;;-0.22;89.47
54806;BME280;62866;55.776;37.496;2023-03-05T06:48:44;96933.13;;;-0.31;89.09
54806;BME280;62866;55.776;37.496;2023-03-05T06:51:15;96914.88;;;-0.40;89.76
54806;BME280;62866;55.776;37.496;2023-03-05T06:53:41;96937.56;;;-0.32;89.79
54806;BME280;62866;55.776;37.496;2023-03-05T06:56:07;96939.63;;;-0.27;89.54
54806;BME280;62866;55.776;37.496;2023-03-05T06:58:33;96933.59;;;-0.21;89.63
54806;BME280;62866;55.776;37.496;2023-03-05T07:00:58;96935.47;;;-0.15;89.04
54806;BME280;62866;55.776;37.496;2023-03-05T07:03:24;96940.50;;;-0.20;89.26
54806;BME280;62866;55.776;37.496;2023-03-05T07:05:49;96940.53;;;-0.14;89.28
54806;BME280;62866;55.776;37.496;2023-03-05T07:08:15;96949.22;;;-0.13;89.54
54806;BME280;62866;55.776;37.496;2023-03-05T07:10:41;96946.78;;;-0.15;89.94
54806;BME280;62866;55.776;37.496;2023-03-05T07:13:08;96953.66;;;-0.14;90.05
54806;BME280;62866;55.776;37.496;2023-03-05T07:15:37;96958.91;;;-0.14;90.01
54806;BME280;62866;55.776;37.496;2023-03-05T07:18:03;96957.00;;;-0.26;89.80
54806;BME280;62866;55.776;37.496;2023-03-05T07:20:29;96959.81;;;-0.28;89.73
54806;BME280;62866;55.776;37.496;2023-03-05T07:22:55;96971.41;;;-0.16;89.75
54806;BME280;62866;55.776;37.496;2023-03-05T07:25:20;96975.63;;;-0.21;89.36
54806;BME280;62866;55.776;37.496;2023-03-05T07:27:48;96967.16;;;-0.17;89.71
54806;BME280;62866;55.776;37.496;2023-03-05T07:30:14;96974.47;;;-0.12;89.35
54806;BME280;62866;55.776;37.496;2023-03-05T07:32:40;96971.41;;;-0.16;89.09
54806;BME280;62866;55.776;37.496;2023-03-05T07:35:06;96988.06;;;-0.09;88.85
54806;BME280;62866;55.776;37.496;2023-03-05T07:37:32;96993.78;;;0.02;88.63
54806;BME280;62866;55.776;37.496;2023-03-05T07:39:57;96984.75;;;0.11;88.43
54806;BME280;62866;55.776;37.496;2023-03-05T07:42:23;96992.88;;;0.16;88.62
54806;BME280;62866;55.776;37.496;2023-03-05T07:44:49;96987.00;;;0.14;88.47
54806;BME280;62866;55.776;37.496;2023-03-05T07:47:14;97004.09;;;0.31;88.42
54806;BME280;62866;55.776;37.496;2023-03-05T07:49:40;97005.41;;;0.42;88.21
54806;BME280;62866;55.776;37.496;2023-03-05T07:52:06;97013.50;;;0.47;87.74
54806;BME280;62866;55.776;37.496;2023-03-05T07:54:32;97010.50;;;0.50;87.84
54806;BME280;62866;55.776;37.496;2023-03-05T07:57:06;97023.44;;;0.51;87.80
54806;BME280;62866;55.776;37.496;2023-03-05T07:59:32;97020.81;;;0.51;87.84
54806;BME280;62866;55.776;37.496;2023-03-05T08:01:57;97024.34;;;0.65;88.26
54806;BME280;62866;55.776;37.496;2023-03-05T08:04:23;97036.31;;;0.74;88.15
54806;BME280;62866;55.776;37.496;2023-03-05T08:06:49;97036.34;;;0.81;87.99
54806;BME280;62866;55.776;37.496;2023-03-05T08:09:15;97035.59;;;0.93;87.59
54806;BME280;62866;55.776;37.496;2023-03-05T08:11:41;97043.31;;;1.01;87.58
54806;BME280;62866;55.776;37.496;2023-03-05T08:14:07;97042.97;;;1.11;87.69
54806;BME280;62866;55.776;37.496;2023-03-05T08:16:33;97035.88;;;1.05;87.46
54806;BME280;62866;55.776;37.496;2023-03-05T08:18:59;97047.41;;;1.10;87.95
54806;BME280;62866;55.776;37.496;2023-03-05T08:21:30;97048.03;;;1.12;87.38
54806;BME280;62866;55.776;37.496;2023-03-05T08:23:59;97059.38;;;1.13;87.24
54806;BME280;62866;55.776;37.496;2023-03-05T08:26:29;97047.59;;;1.09;87.27
54806;BME280;62866;55.776;37.496;2023-03-05T08:28:56;97064.31;;;1.36;86.88
54806;BME280;62866;55.776;37.496;2023-03-05T08:31:23;97068.84;;;1.48;86.73
54806;BME280;62866;55.776;37.496;2023-03-05T08:33:50;97071.31;;;1.57;86.27
54806;BME280;62866;55.776;37.496;2023-03-05T08:36:16;97064.22;;;1.57;86.25
54806;BME280;62866;55.776;37.496;2023-03-05T08:38:42;97077.97;;;1.59;85.88
54806;BME280;62866;55.776;37.496;2023-03-05T08:41:09;97081.19;;;1.48;85.85
54806;BME280;62866;55.776;37.496;2023-03-05T08:43:35;97087.38;;;1.27;86.03
54806;BME280;62866;55.776;37.496;2023-03-05T08:46:01;97089.59;;;1.24;86.50
54806;BME280;62866;55.776;37.496;2023-03-05T08:48:27;97103.56;;;1.24;86.59
54806;BME280;62866;55.776;37.496;2023-03-05T08:50:53;97097.06;;;1.20;86.78
54806;BME280;62866;55.776;37.496;2023-03-05T08:53:20;97108.53;;;1.06;86.79
54806;BME280;62866;55.776;37.496;2023-03-05T08:55:56;97113.97;;;1.04;86.48
54806;BME280;62866;55.776;37.496;2023-03-05T08:58:22;97113.16;;;1.04;87.00
54806;BME280;62866;55.776;37.496;2023-03-05T09:00:48;97112.59;;;1.08;86.88
54806;BME280;62866;55.776;37.496;2023-03-05T09:03:14;97125.94;;;1.07;86.84
54806;BME280;62866;55.776;37.496;2023-03-05T09:05:39;97119.88;;;1.06;86.69
54806;BME280;62866;55.776;37.496;2023-03-05T09:08:05;97123.63;;;1.25;86.82
54806;BME280;62866;55.776;37.496;2023-03-05T09:10:30;97121.84;;;1.39;86.66
54806;BME280;62866;55.776;37.496;2023-03-05T09:12:56;97132.78;;;1.42;86.59
54806;BME280;62866;55.776;37.496;2023-03-05T09:15:21;97122.81;;;1.25;86.30
54806;BME280;62866;55.776;37.496;2023-03-05T09:17:47;97133.81;;;1.41;87.05
54806;BME280;62866;55.776;37.496;2023-03-05T09:20:13;97138.13;;;1.56;86.80
54806;BME280;62866;55.776;37.496;2023-03-05T09:22:40;97136.34;;;1.63;86.64
54806;BME280;62866;55.776;37.496;2023-03-05T09:25:07;97135.94;;;1.66;86.39
54806;BME280;62866;55.776;37.496;2023-03-05T09:27:34;97143.41;;;1.62;86.24
54806;BME280;62866;55.776;37.496;2023-03-05T09:29:59;97149.03;;;1.46;86.13
54806;BME280;62866;55.776;37.496;2023-03-05T09:32:25;97154.19;;;1.26;85.53
54806;BME280;62866;55.776;37.496;2023-03-05T09:34:50;97170.34;;;1.17;85.28
54806;BME280;62866;55.776;37.496;2023-03-05T09:37:16;97162.63;;;1.15;85.57
54806;BME280;62866;55.776;37.496;2023-03-05T09:39:42;97174.53;;;1.11;86.22
54806;BME280;62866;55.776;37.496;2023-03-05T09:50:47;97193.72;;;0.77;86.16
54806;BME280;62866;55.776;37.496;2023-03-05T09:53:21;97206.19;;;0.68;86.36
54806;BME280;62866;55.776;37.496;2023-03-05T09:55:50;97200.59;;;0.50;86.14
54806;BME280;62866;55.776;37.496;2023-03-05T09:58:40;97211.66;;;0.46;86.31
54806;BME280;62866;55.776;37.496;2023-03-05T10:03:57;97216.91;;;0.46;86.40
54806;BME280;62866;55.776;37.496;2023-03-05T10:14:28;97235.63;;;0.57;87.02
54806;BME280;62866;55.776;37.496;2023-03-05T10:20:03;97239.69;;;0.60;86.85
54806;BME280;62866;55.776;37.496;2023-03-05T10:46:59;97290.03;;;0.78;85.75
54806;BME280;62866;55.776;37.496;2023-03-05T10:49:29;97307.19;;;0.74;85.04
54806;BME280;62866;55.776;37.496;2023-03-05T10:52:04;97305.03;;;0.63;85.34
54806;BME280;62866;55.776;37.496;2023-03-05T10:54:33;97309.59;;;0.54;85.18
54806;BME280;62866;55.776;37.496;2023-03-05T10:59:29;97331.75;;;0.45;85.33
54806;BME280;62866;55.776;37.496;2023-03-05T11:02:05;97334.56;;;0.44;85.82
54806;BME280;62866;55.776;37.496;2023-03-05T11:04:35;97336.22;;;0.30;85.63
54806;BME280;62866;55.776;37.496;2023-03-05T11:09:32;97352.25;;;0.35;85.34
54806;BME280;62866;55.776;37.496;2023-03-05T11:14:27;97358.59;;;0.41;84.85
54806;BME280;62866;55.776;37.496;2023-03-05T11:17:02;97336.19;;;0.45;84.64
54806;BME280;62866;55.776;37.496;2023-03-05T11:19:34;97364.22;;;0.73;84.56
54806;BME280;62866;55.776;37.496;2023-03-05T11:24:29;97366.00;;;1.09;83.98
54806;BME280;62866;55.776;37.496;2023-03-05T11:26:56;97369.44;;;1.31;84.16
54806;BME280;62866;55.776;37.496;2023-03-05T11:29:27;97372.88;;;1.52;83.96
54806;BME280;62866;55.776;37.496;2023-03-05T11:31:54;97376.97;;;1.83;83.74
54806;BME280;62866;55.776;37.496;2023-03-05T11:34:22;97376.84;;;1.98;83.57
54806;BME280;62866;55.776;37.496;2023-03-05T11:39:20;97378.81;;;1.89;81.90
54806;BME280;62866;55.776;37.496;2023-03-05T11:42:19;97396.97;;;1.77;81.83
54806;BME280;62866;55.776;37.496;2023-03-05T11:44:52;97393.94;;;1.52;81.75
54806;BME280;62866;55.776;37.496;2023-03-05T11:47:32;97408.13;;;1.30;81.97
54806;BME280;62866;55.776;37.496;2023-03-05T11:53:05;97421.94;;;1.18;82.00
54806;BME280;62866;55.776;37.496;2023-03-05T11:55:45;97429.06;;;1.17;81.70
54806;BME280;62866;55.776;37.496;2023-03-05T11:58:35;97434.69;;;1.14;80.55
54806;BME280;62866;55.776;37.496;2023-03-05T12:01:12;97439.25;;;1.05;80.38
54806;BME280;62866;55.776;37.496;2023-03-05T12:03:38;97448.25;;;0.96;80.60
54806;BME280;62866;55.776;37.496;2023-03-05T12:06:27;97456.53;;;0.79;81.28
54806;BME280;62866;55.776;37.496;2023-03-05T12:08:54;97460.97;;;0.78;81.42
54806;BME280;62866;55.776;37.496;2023-03-05T12:11:26;97464.34;;;0.72;80.82
54806;BME280;62866;55.776;37.496;2023-03-05T12:17:13;97471.69;;;0.91;79.09
54806;BME280;62866;55.776;37.496;2023-03-05T12:19:59;97477.72;;;1.06;78.69
54806;BME280;62866;55.776;37.496;2023-03-05T12:22:36;97472.97;;;1.17;78.96
54806;BME280;62866;55.776;37.496;2023-03-05T12:25:31;97480.00;;;1.31;79.14
54806;BME280;62866;55.776;37.496;2023-03-05T12:27:57;97485.09;;;1.32;79.56
54806;BME280;62866;55.776;37.496;2023-03-05T12:38:46;97487.00;;;0.88;81.13
54806;BME280;62866;55.776;37.496;2023-03-05T12:41:32;97510.13;;;0.77;81.30
54806;BME280;62866;55.776;37.496;2023-03-05T12:49:38;97520.81;;;0.76;80.80
54806;BME280;62866;55.776;37.496;2023-03-05T12:52:04;97522.72;;;0.67;81.19
54806;BME280;62866;55.776;37.496;2023-03-05T12:54:40;97527.25;;;0.59;80.36
54806;BME280;62866;55.776;37.496;2023-03-05T12:57:21;97531.66;;;0.66;79.68
54806;BME280;62866;55.776;37.496;2023-03-05T13:02:21;97542.97;;;0.82;79.93
54806;BME280;62866;55.776;37.496;2023-03-05T13:04:47;97539.06;;;0.92;80.16
54806;BME280;62866;55.776;37.496;2023-03-05T13:07:17;97547.06;;;0.99;80.41
54806;BME280;62866;55.776;37.496;2023-03-05T13:09:56;97532.34;;;0.90;80.28
54806;BME280;62866;55.776;37.496;2023-03-05T13:12:25;97546.25;;;0.84;81.24
54806;BME280;62866;55.776;37.496;2023-03-05T13:14:58;97546.41;;;0.67;80.50
54806;BME280;62866;55.776;37.496;2023-03-05T13:17:34;97515.09;;;0.28;80.69
54806;BME280;62866;55.776;37.496;2023-03-05T13:20:02;97562.63;;;0.42;81.28
54806;BME280;62866;55.776;37.496;2023-03-05T13:22:30;97559.94;;;0.27;81.96
54806;BME280;62866;55.776;37.496;2023-03-05T13:25:22;97575.09;;;0.25;81.96
54806;BME280;62866;55.776;37.496;2023-03-05T13:27:48;97575.53;;;0.28;82.33
54806;BME280;62866;55.776;37.496;2023-03-05T13:30:25;97586.78;;;0.22;82.33
54806;BME280;62866;55.776;37.496;2023-03-05T13:32:56;97584.50;;;0.19;82.79
54806;BME280;62866;55.776;37.496;2023-03-05T13:35:27;97593.56;;;0.17;83.30
54806;BME280;62866;55.776;37.496;2023-03-05T13:37:53;97578.03;;;0.07;83.82
54806;BME280;62866;55.776;37.496;2023-03-05T13:40:28;97592.44;;;0.11;84.26
54806;BME280;62866;55.776;37.496;2023-03-05T13:42:54;97593.44;;;0.10;84.07
54806;BME280;62866;55.776;37.496;2023-03-05T13:45:32;97604.41;;;0.14;84.50
54806;BME280;62866;55.776;37.496;2023-03-05T13:47:59;97613.13;;;0.14;85.03
54806;BME280;62866;55.776;37.496;2023-03-05T13:52:50;97610.06;;;0.03;84.95
54806;BME280;62866;55.776;37.496;2023-03-05T13:55:16;97623.91;;;-0.04;84.69
54806;BME280;62866;55.776;37.496;2023-03-05T13:57:50;97620.53;;;-0.12;84.78
54806;BME280;62866;55.776;37.496;2023-03-05T14:00:33;97628.13;;;-0.17;83.93
54806;BME280;62866;55.776;37.496;2023-03-05T14:03:21;97635.84;;;-0.24;84.04
54806;BME280;62866;55.776;37.496;2023-03-05T14:05:47;97625.22;;;-0.30;84.34
54806;BME280;62866;55.776;37.496;2023-03-05T14:08:25;97631.63;;;-0.33;84.50
54806;BME280;62866;55.776;37.496;2023-03-05T14:10:55;97648.53;;;-0.27;84.88
54806;BME280;62866;55.776;37.496;2023-03-05T14:13:25;97646.88;;;-0.28;84.96
54806;BME280;62866;55.776;37.496;2023-03-05T14:18:32;97647.63;;;-0.43;84.13
54806;BME280;62866;55.776;37.496;2023-03-05T14:21:06;97651.69;;;-0.40;84.50
54806;BME280;62866;55.776;37.496;2023-03-05T14:23:49;97653.50;;;-0.41;84.58
54806;BME280;62866;55.776;37.496;2023-03-05T14:26:34;97663.34;;;-0.34;84.36